Time;durP1;ratioP1;P1;durP2;ratioP2;P2;SDS_P1;SDS_P2;PMS_P1;PMS_P2;Temp;Humidity;BMP_temperature;BMP_pressure;BME280_temperature;BME280_humidity;BME280_pressure;Samples;Min_cycle;Max_cycle;Signal;HPM_P1;HPM_P2
2023/07/05 00:01:35;;;;;;;10.50;6.80;;;;;;;15.18;74.46;100793.34;5074348;28;20478;-65
2023/07/05 00:04:08;;;;;;;12.60;6.83;;;;;;;15.52;72.80;100799.09;5074433;28;20436;-66
2023/07/05 00:06:40;;;;;;;11.43;7.97;;;;;;;15.38;73.06;100792.19;5073352;28;20838;-67
2023/07/05 00:09:11;;;;;;;13.07;7.87;;;;;;;15.28;73.54;100787.31;5073211;28;20389;-65
2023/07/05 00:11:42;;;;;;;8.47;7.00;;;;;;;15.21;73.51;100781.13;5073165;28;20514;-65
2023/07/05 00:14:14;;;;;;;10.00;6.83;;;;;;;15.21;73.61;100781.97;5072809;28;20486;-66
2023/07/05 00:16:47;;;;;;;13.90;7.70;;;;;;;15.16;73.97;100781.84;5089250;28;20449;-63
2023/07/05 00:19:19;;;;;;;13.30;6.73;;;;;;;15.12;73.85;100771.63;5070863;28;20455;-65
2023/07/05 00:21:50;;;;;;;8.30;7.40;;;;;;;15.17;73.53;100764.41;5083126;28;20455;-65
2023/07/05 00:24:22;;;;;;;9.03;7.47;;;;;;;15.28;73.14;100764.66;5085152;28;20423;-66
2023/07/05 00:26:54;;;;;;;14.70;7.37;;;;;;;15.27;73.13;100769.28;5069059;28;20561;-64
2023/07/05 00:29:26;;;;;;;10.97;7.17;;;;;;;15.26;72.85;100767.63;5071701;28;20438;-66
2023/07/05 00:31:58;;;;;;;8.70;6.77;;;;;;;15.21;73.33;100756.59;5069401;28;20408;-65
2023/07/05 00:34:31;;;;;;;7.50;6.70;;;;;;;15.54;71.44;100753.34;5087471;28;20433;-61
2023/07/05 00:37:03;;;;;;;10.67;6.50;;;;;;;15.39;71.58;100751.06;5064975;28;20529;-67
2023/07/05 00:42:43;;;;;;;10.83;6.03;;;;;;;15.30;72.47;100749.72;4956563;23;20489;-69
2023/07/05 00:46:00;;;;;;;9.83;7.27;;;;;;;15.35;72.33;100749.84;4937015;29;20555;-70
2023/07/05 00:48:37;;;;;;;11.23;8.30;;;;;;;15.26;72.93;100750.44;4914812;29;20523;-69
2023/07/05 00:51:17;;;;;;;13.77;6.87;;;;;;;15.26;72.54;100751.25;4929645;29;20428;-70
2023/07/05 00:53:48;;;;;;;9.70;7.37;;;;;;;15.31;72.01;100745.94;4922692;29;21007;-69
2023/07/05 00:56:23;;;;;;;6.63;5.97;;;;;;;15.22;72.67;100742.75;4930030;29;20706;-68
2023/07/05 00:58:55;;;;;;;9.20;7.00;;;;;;;15.26;72.24;100744.97;4931842;29;20474;-69
2023/07/05 01:01:27;;;;;;;8.20;6.10;;;;;;;15.22;72.03;100734.56;4930708;29;21044;-68
2023/07/05 01:04:01;;;;;;;7.70;6.33;;;;;;;15.25;72.52;100737.88;4932423;28;20425;-69
2023/07/05 01:06:34;;;;;;;9.90;7.10;;;;;;;15.28;71.98;100737.41;4933465;29;20448;-69
2023/07/05 01:09:04;;;;;;;10.37;5.97;;;;;;;15.33;71.55;100730.19;4929483;29;20445;-69
2023/07/05 01:11:42;;;;;;;10.10;6.70;;;;;;;15.34;72.39;100731.84;4931069;29;20464;-69
2023/07/05 01:14:19;;;;;;;8.10;6.50;;;;;;;15.36;71.77;100728.88;4935292;29;20447;-71
2023/07/05 01:16:58;;;;;;;12.33;6.53;;;;;;;15.43;71.23;100716.78;4927760;29;20968;-68
2023/07/05 01:19:57;;;;;;;7.70;6.80;;;;;;;15.36;71.84;100717.97;4928091;29;20424;-69
2023/07/05 01:22:57;;;;;;;11.90;5.90;;;;;;;15.31;71.67;100705.03;4938128;29;20504;-68
2023/07/05 01:25:52;;;;;;;12.43;6.40;;;;;;;15.37;71.38;100706.81;4927461;29;20949;-69
2023/07/05 01:28:44;;;;;;;13.00;6.90;;;;;;;15.42;71.08;100697.94;4926746;29;20992;-68
2023/07/05 01:31:45;;;;;;;12.73;7.10;;;;;;;15.42;71.31;100695.19;4926508;29;20813;-68
2023/07/05 01:34:29;;;;;;;8.43;6.30;;;;;;;15.52;70.42;100692.72;4933553;29;20523;-70
2023/07/05 01:36:58;;;;;;;8.77;5.80;;;;;;;15.69;69.37;100688.19;4928765;29;20457;-68
2023/07/05 01:39:27;;;;;;;6.77;5.57;;;;;;;15.76;68.83;100691.63;4930575;29;20880;-69
2023/07/05 01:41:57;;;;;;;7.47;5.10;;;;;;;15.83;68.58;100681.38;4933957;29;20553;-69
2023/07/05 01:44:28;;;;;;;7.90;6.40;;;;;;;15.87;68.49;100670.84;4935804;29;20964;-69
2023/07/05 01:47:07;;;;;;;7.20;6.40;;;;;;;15.85;68.36;100660.16;4938855;29;20483;-68
2023/07/05 01:49:54;;;;;;;6.23;5.63;;;;;;;15.99;67.35;100649.78;4932582;29;20527;-68
2023/07/05 01:52:32;;;;;;;5.90;5.40;;;;;;;15.95;67.53;100645.88;4951843;29;20476;-68
2023/07/05 01:55:09;;;;;;;11.37;6.50;;;;;;;15.95;67.27;100649.44;4943104;29;20475;-69
2023/07/05 01:57:44;;;;;;;9.47;5.80;;;;;;;16.00;67.34;100654.16;4934383;29;20467;-71
2023/07/05 02:00:17;;;;;;;8.80;5.20;;;;;;;15.94;66.97;100655.97;4940958;29;20761;-69
2023/07/05 02:02:55;;;;;;;9.33;5.70;;;;;;;15.94;67.54;100655.13;4934201;29;20494;-70
2023/07/05 02:05:27;;;;;;;8.53;5.90;;;;;;;16.07;66.13;100657.59;4947597;28;20778;-67
2023/07/05 02:07:57;;;;;;;6.90;5.97;;;;;;;16.06;66.47;100658.66;4952992;28;20862;-68
2023/07/05 02:10:26;;;;;;;9.83;5.17;;;;;;;16.08;65.41;100660.06;4932353;28;20429;-69
2023/07/05 02:12:57;;;;;;;6.27;5.60;;;;;;;16.08;65.71;100656.50;4932945;29;20437;-69
2023/07/05 02:15:27;;;;;;;9.13;5.93;;;;;;;15.94;65.95;100645.03;4939913;29;20953;-68
2023/07/05 02:17:58;;;;;;;9.00;5.40;;;;;;;16.03;65.28;100653.66;4938914;29;20460;-69
2023/07/05 02:20:27;;;;;;;6.10;5.50;;;;;;;15.89;66.84;100653.13;4933336;29;20519;-68
2023/07/05 02:22:56;;;;;;;8.33;6.33;;;;;;;15.89;66.21;100644.13;4936028;29;20468;-69
2023/07/05 02:25:28;;;;;;;8.97;6.40;;;;;;;15.98;65.53;100640.75;4936135;29;20456;-68
2023/07/05 02:27:57;;;;;;;9.00;6.20;;;;;;;16.04;65.49;100644.41;4939900;29;20996;-69
2023/07/05 02:30:27;;;;;;;12.97;6.30;;;;;;;16.06;65.05;100631.38;4942326;29;20462;-69
2023/07/05 02:32:58;;;;;;;7.60;6.77;;;;;;;15.91;66.16;100626.44;4943379;29;20455;-70
2023/07/05 02:35:27;;;;;;;10.97;6.60;;;;;;;15.87;66.05;100627.16;4945334;29;20870;-68
2023/07/05 02:37:56;;;;;;;6.63;5.70;;;;;;;15.84;66.61;100617.56;4945919;29;20479;-68
2023/07/05 02:40:25;;;;;;;8.23;6.03;;;;;;;15.87;66.54;100617.09;4940295;29;20459;-69
2023/07/05 02:43:29;;;;;;;9.37;6.27;;;;;;;15.94;65.91;100614.19;4941089;29;20472;-69
2023/07/05 02:45:58;;;;;;;10.17;6.87;;;;;;;16.01;65.55;100613.00;4944812;28;20433;-70
2023/07/05 02:48:29;;;;;;;5.50;5.00;;;;;;;15.91;65.73;100606.50;4948598;29;20466;-69
2023/07/05 02:50:58;;;;;;;10.73;6.50;;;;;;;15.94;65.89;100601.38;4942524;29;20614;-69
2023/07/05 02:53:28;;;;;;;8.30;5.97;;;;;;;15.93;66.15;100599.72;4944147;28;20425;-69
2023/07/05 02:55:57;;;;;;;10.63;6.13;;;;;;;15.80;66.85;100588.28;4939132;29;20424;-68
2023/07/05 02:58:27;;;;;;;8.87;6.63;;;;;;;15.81;66.65;100579.84;4929399;29;20471;-69
2023/07/05 03:01:37;;;;;;;9.90;6.70;;;;;;;15.80;66.87;100574.63;4935157;29;20476;-69
2023/07/05 03:04:08;;;;;;;9.43;7.10;;;;;;;15.74;67.56;100568.25;4930384;29;20788;-69
2023/07/05 03:06:37;;;;;;;7.30;5.30;;;;;;;15.69;67.30;100565.41;4937762;29;20476;-68
2023/07/05 03:09:06;;;;;;;9.90;7.20;;;;;;;15.74;67.05;100567.41;4934939;28;20465;-70
2023/07/05 03:11:36;;;;;;;9.90;6.30;;;;;;;15.75;67.39;100559.00;4936598;29;20924;-68
2023/07/05 03:14:05;;;;;;;8.80;5.73;;;;;;;15.82;66.44;100559.69;4932971;29;20464;-69
2023/07/05 03:16:34;;;;;;;7.43;5.87;;;;;;;15.86;66.21;100558.13;4933510;29;20435;-69
2023/07/05 03:19:04;;;;;;;7.97;6.83;;;;;;;15.94;66.00;100552.25;4934299;29;20839;-69
2023/07/05 03:21:35;;;;;;;6.63;5.87;;;;;;;15.97;65.50;100559.97;4931258;29;20432;-69
2023/07/05 03:24:06;;;;;;;9.47;6.87;;;;;;;15.95;65.65;100548.47;4936101;29;20541;-69
2023/07/05 03:26:35;;;;;;;7.40;6.70;;;;;;;16.05;65.19;100558.72;4940576;29;20460;-67
2023/07/05 03:29:04;;;;;;;8.70;6.17;;;;;;;16.13;65.02;100565.69;4940648;29;20432;-70
2023/07/05 03:31:34;;;;;;;7.97;7.20;;;;;;;16.13;64.81;100552.03;4952779;28;20834;-68
2023/07/05 03:34:03;;;;;;;10.13;5.93;;;;;;;16.18;64.61;100566.59;4943790;29;20432;-69
2023/07/05 03:36:32;;;;;;;8.57;5.90;;;;;;;16.24;64.48;100551.97;4943392;29;20959;-69
2023/07/05 03:39:04;;;;;;;10.00;7.73;;;;;;;16.30;64.29;100555.63;4941978;29;20947;-70
2023/07/05 03:41:34;;;;;;;13.30;7.27;;;;;;;16.33;64.04;100555.09;4939294;29;20458;-69
2023/07/05 03:44:03;;;;;;;8.23;6.20;;;;;;;16.40;63.69;100544.88;4926558;29;20811;-68
2023/07/05 03:46:32;;;;;;;7.93;5.60;;;;;;;16.47;63.59;100546.34;4935906;29;20418;-68
2023/07/05 03:49:01;;;;;;;9.33;6.30;;;;;;;16.57;63.33;100551.13;4927469;29;20453;-68
2023/07/05 03:51:31;;;;;;;6.37;5.77;;;;;;;16.60;62.81;100545.22;4946879;29;20534;-68
2023/07/05 03:54:00;;;;;;;11.13;5.97;;;;;;;16.75;62.79;100542.69;4936250;28;20403;-68
2023/07/05 03:56:33;;;;;;;9.73;7.20;;;;;;;17.01;61.24;100546.59;4941250;29;20768;-68
2023/07/05 03:59:03;;;;;;;6.20;5.70;;;;;;;17.22;60.98;100542.25;4938414;29;20428;-69
2023/07/05 04:05:20;;;;;;;6.50;5.90;;;;;;;17.79;59.03;100546.22;4926032;29;20973;-68
2023/07/05 04:07:50;;;;;;;10.00;5.97;;;;;;;18.08;57.73;100535.81;4935049;29;20456;-68
2023/07/05 04:10:19;;;;;;;7.43;6.73;;;;;;;18.16;57.14;100529.03;4931492;29;20414;-68
2023/07/05 04:12:50;;;;;;;10.03;6.20;;;;;;;18.18;56.96;100529.59;4933905;29;20502;-68
2023/07/05 04:15:19;;;;;;;7.37;6.67;;;;;;;18.20;56.87;100517.28;4936177;29;20527;-69
2023/07/05 04:17:48;;;;;;;10.47;6.13;;;;;;;18.09;57.01;100528.44;4928723;29;20473;-70
2023/07/05 04:20:17;;;;;;;6.43;5.87;;;;;;;18.01;57.21;100528.91;4931856;29;20523;-69
2023/07/05 04:22:47;;;;;;;9.90;7.20;;;;;;;17.81;57.68;100530.34;4935459;29;20472;-69
2023/07/05 04:25:16;;;;;;;13.97;7.83;;;;;;;17.95;57.82;100528.03;4936534;29;20435;-68
2023/07/05 04:27:45;;;;;;;7.10;6.20;;;;;;;17.85;57.92;100519.72;4925718;29;20457;-69
2023/07/05 04:30:16;;;;;;;9.77;6.07;;;;;;;17.77;57.48;100503.75;4938344;29;20411;-69
2023/07/05 04:32:45;;;;;;;9.43;5.43;;;;;;;17.75;57.64;100498.56;4929678;28;20457;-70
2023/07/05 04:35:14;;;;;;;9.47;5.70;;;;;;;17.73;58.15;100494.41;4933713;29;20484;-70
2023/07/05 04:37:43;;;;;;;8.17;7.47;;;;;;;17.76;57.98;100499.41;4936022;29;20464;-68
2023/07/05 04:40:13;;;;;;;10.50;7.53;;;;;;;17.73;57.46;100494.41;4936560;29;20443;-68
2023/07/05 04:42:42;;;;;;;11.90;5.97;;;;;;;17.86;56.81;100493.19;4936141;29;20454;-69
2023/07/05 04:45:21;;;;;;;7.80;5.80;;;;;;;17.87;56.72;100487.44;4938645;29;20440;-67
2023/07/05 04:47:50;;;;;;;7.60;6.17;;;;;;;18.48;55.68;100482.44;4945321;29;20494;-68
2023/07/05 04:50:20;;;;;;;6.73;6.17;;;;;;;18.65;54.31;100481.22;4944904;29;20482;-69
2023/07/05 04:52:49;;;;;;;10.70;6.20;;;;;;;18.81;53.75;100478.56;4950197;28;20436;-69
2023/07/05 04:55:18;;;;;;;6.03;5.13;;;;;;;19.13;53.12;100481.97;4928335;29;20494;-67
2023/07/05 04:57:47;;;;;;;8.97;6.30;;;;;;;20.01;51.05;100477.25;4932630;29;20430;-67
2023/07/05 05:00:17;;;;;;;10.40;6.00;;;;;;;20.65;49.03;100469.25;4930667;29;20479;-69
2023/07/05 05:02:47;;;;;;;7.67;5.77;;;;;;;20.90;48.44;100476.59;4934825;29;20434;-67
2023/07/05 05:05:16;;;;;;;7.87;6.23;;;;;;;20.43;49.11;100479.72;4929603;29;20464;-68
2023/07/05 05:07:46;;;;;;;11.30;7.23;;;;;;;19.61;51.49;100472.53;4925835;29;20435;-68
2023/07/05 05:10:15;;;;;;;9.83;7.10;;;;;;;18.81;53.74;100467.59;4932862;29;20475;-68
2023/07/05 05:12:44;;;;;;;11.47;6.17;;;;;;;18.57;54.08;100456.22;4930970;29;20779;-68
2023/07/05 05:15:13;;;;;;;9.40;8.23;;;;;;;18.51;55.11;100457.25;4922133;29;20473;-68
2023/07/05 05:17:42;;;;;;;8.60;6.47;;;;;;;18.59;55.11;100459.50;4936433;29;20489;-68
2023/07/05 05:20:13;;;;;;;8.27;6.67;;;;;;;18.85;54.47;100457.75;4936122;29;20847;-69
2023/07/05 05:22:42;;;;;;;9.53;7.17;;;;;;;19.02;53.98;100452.91;4930610;29;20548;-69
2023/07/05 05:25:11;;;;;;;8.93;6.30;;;;;;;19.48;52.59;100453.88;4930051;28;20564;-68
2023/07/05 05:27:40;;;;;;;13.60;6.50;;;;;;;19.93;51.46;100450.34;4934039;29;20910;-69
2023/07/05 05:30:10;;;;;;;7.60;6.33;;;;;;;20.14;50.51;100435.50;4933851;29;20404;-68
2023/07/05 05:32:39;;;;;;;7.63;6.53;;;;;;;20.00;51.08;100439.91;4933850;29;20448;-69
2023/07/05 05:35:09;;;;;;;9.60;6.77;;;;;;;19.63;52.57;100431.94;4938448;29;20427;-68
2023/07/05 05:37:40;;;;;;;10.13;6.93;;;;;;;19.46;52.63;100445.91;4933349;28;20464;-68
2023/07/05 05:40:10;;;;;;;8.67;6.90;;;;;;;19.24;53.33;100431.56;4936737;29;20929;-68
2023/07/05 05:42:40;;;;;;;7.40;5.60;;;;;;;19.11;53.65;100432.09;4933932;29;20511;-68
2023/07/05 05:45:09;;;;;;;11.20;7.90;;;;;;;19.22;53.63;100424.72;4936748;29;20795;-68
2023/07/05 05:47:38;;;;;;;7.10;6.30;;;;;;;19.24;53.36;100422.50;4938319;29;20431;-68
2023/07/05 05:50:08;;;;;;;8.20;6.60;;;;;;;19.40;53.14;100419.53;4927356;29;20423;-69
2023/07/05 05:52:40;;;;;;;13.60;6.93;;;;;;;19.32;53.42;100411.81;4936125;29;20415;-68
2023/07/05 05:55:09;;;;;;;10.07;6.10;;;;;;;19.44;54.03;100406.94;4932077;29;20499;-68
2023/07/05 05:57:38;;;;;;;9.30;7.17;;;;;;;19.32;53.62;100409.06;4940705;29;20486;-67
2023/07/05 06:00:09;;;;;;;8.23;6.40;;;;;;;19.31;54.20;100396.47;4938940;28;20403;-69
2023/07/05 06:02:38;;;;;;;8.33;7.53;;;;;;;19.31;54.33;100393.75;4935811;29;20433;-67
2023/07/05 06:05:08;;;;;;;8.80;6.93;;;;;;;19.21;54.26;100388.22;4946547;29;20451;-69
2023/07/05 06:07:39;;;;;;;8.57;7.20;;;;;;;19.20;54.39;100385.75;4935021;29;20450;-68
2023/07/05 06:10:10;;;;;;;9.17;7.90;;;;;;;19.21;54.53;100385.47;4941353;29;20463;-69
2023/07/05 06:12:41;;;;;;;9.50;6.90;;;;;;;19.53;54.16;100377.03;4936825;29;20542;-69
2023/07/05 06:15:12;;;;;;;8.30;7.50;;;;;;;19.59;53.58;100370.47;4949655;29;20407;-68
2023/07/05 06:17:42;;;;;;;11.20;7.80;;;;;;;19.52;54.48;100358.91;4941219;29;20534;-68
2023/07/05 06:20:14;;;;;;;11.40;7.67;;;;;;;19.58;54.12;100359.75;4934695;29;20442;-67
2023/07/05 06:22:45;;;;;;;12.87;7.37;;;;;;;19.49;54.41;100359.47;4935620;29;21059;-68
2023/07/05 06:25:13;;;;;;;8.20;6.07;;;;;;;19.49;54.55;100349.34;4938721;29;20990;-67
2023/07/05 06:27:42;;;;;;;11.87;7.60;;;;;;;19.52;54.81;100335.03;4937164;29;20470;-68
2023/07/05 06:30:12;;;;;;;8.00;7.20;;;;;;;19.70;54.28;100346.59;4935402;29;20495;-68
2023/07/05 06:32:42;;;;;;;13.47;8.03;;;;;;;19.66;54.32;100339.97;4937447;29;20422;-68
2023/07/05 06:35:11;;;;;;;11.00;7.93;;;;;;;19.66;54.64;100326.25;4934253;29;20939;-69
2023/07/05 06:37:41;;;;;;;11.70;8.77;;;;;;;19.75;55.17;100327.38;4933320;29;20513;-68
2023/07/05 06:40:12;;;;;;;12.73;7.83;;;;;;;19.78;54.23;100330.38;5194683;23;20490;-64
2023/07/05 06:42:41;;;;;;;12.73;8.73;;;;;;;19.81;54.50;100318.00;4955399;28;20443;-65
2023/07/05 06:45:15;;;;;;;21.27;9.27;;;;;;;20.04;53.82;100313.88;4952524;28;21034;-66
2023/07/05 06:47:45;;;;;;;11.73;8.20;;;;;;;20.09;53.69;100309.16;4948822;28;20460;-66
2023/07/05 06:50:15;;;;;;;10.00;7.70;;;;;;;20.21;53.39;100306.94;4945699;29;20455;-67
2023/07/05 06:52:44;;;;;;;14.43;9.10;;;;;;;20.43;52.95;100292.84;4936014;29;20443;-64
2023/07/05 06:55:14;;;;;;;11.17;8.50;;;;;;;20.53;52.55;100297.47;4940985;29;20755;-65
2023/07/05 06:57:43;;;;;;;9.57;8.07;;;;;;;20.77;51.92;100304.78;4938201;29;20911;-66
2023/07/05 07:00:14;;;;;;;12.80;9.83;;;;;;;20.94;50.90;100292.59;4936706;29;20565;-65
2023/07/05 07:02:43;;;;;;;17.27;9.00;;;;;;;21.31;50.70;100297.56;4938937;29;20418;-66
2023/07/05 07:05:12;;;;;;;12.50;9.43;;;;;;;21.64;49.74;100302.22;4948474;29;20472;-65
2023/07/05 07:07:41;;;;;;;12.10;8.57;;;;;;;21.84;49.29;100307.53;4942992;29;20488;-64
2023/07/05 07:10:10;;;;;;;13.13;9.87;;;;;;;22.38;48.98;100306.44;4947359;29;20425;-64
2023/07/05 07:12:41;;;;;;;13.03;10.47;;;;;;;22.46;48.10;100314.88;4944355;29;20868;-66
2023/07/05 07:15:10;;;;;;;12.87;11.53;;;;;;;22.39;48.30;100303.38;4944196;29;20431;-66
2023/07/05 07:17:39;;;;;;;12.47;11.20;;;;;;;22.39;48.29;100311.66;4941366;29;20461;-65
2023/07/05 07:20:09;;;;;;;12.90;9.97;;;;;;;22.74;47.07;100315.09;4944922;29;20496;-65
2023/07/05 07:22:39;;;;;;;17.87;12.33;;;;;;;22.91;46.81;100329.19;4939175;29;20440;-64
2023/07/05 07:25:09;;;;;;;15.10;11.70;;;;;;;23.30;45.90;100306.81;4939955;29;20516;-69
2023/07/05 07:27:39;;;;;;;16.87;11.73;;;;;;;23.33;45.67;100300.72;4941636;29;20439;-66
2023/07/05 07:30:10;;;;;;;12.90;11.43;;;;;;;23.42;45.48;100298.91;4944082;29;20515;-66
2023/07/05 07:32:39;;;;;;;19.70;11.50;;;;;;;23.67;45.47;100295.69;4937059;29;20415;-65
2023/07/05 07:35:09;;;;;;;13.47;11.30;;;;;;;24.13;45.46;100286.56;4942878;29;20435;-66
2023/07/05 07:37:38;;;;;;;26.27;13.37;;;;;;;24.05;43.74;100290.88;4944172;29;20564;-62
2023/07/05 07:40:08;;;;;;;16.47;13.90;;;;;;;24.12;44.03;100273.88;4941226;29;20435;-64
2023/07/05 07:42:37;;;;;;;18.83;13.27;;;;;;;23.97;42.88;100274.97;4938932;29;20424;-64
2023/07/05 07:45:09;;;;;;;15.47;12.73;;;;;;;23.80;43.66;100272.84;4937969;29;20447;-66
2023/07/05 07:47:38;;;;;;;19.47;14.20;;;;;;;24.06;43.77;100286.16;4937559;29;20468;-66
2023/07/05 07:50:12;;;;;;;18.60;13.30;;;;;;;23.94;44.05;100296.88;4935147;29;20428;-65
2023/07/05 07:52:42;;;;;;;15.93;14.07;;;;;;;23.64;44.28;100285.28;4936548;29;20470;-65
2023/07/05 07:55:10;;;;;;;20.80;14.17;;;;;;;23.74;44.01;100285.09;4941876;29;20460;-65
2023/07/05 07:57:40;;;;;;;18.60;14.33;;;;;;;23.56;44.63;100301.72;4937763;28;20530;-65
2023/07/05 08:00:12;;;;;;;15.33;13.80;;;;;;;23.59;44.97;100293.66;4935116;29;20771;-66
2023/07/05 08:02:41;;;;;;;14.43;12.97;;;;;;;24.05;44.68;100301.09;4935010;29;20429;-66
2023/07/05 08:05:15;;;;;;;17.83;15.60;;;;;;;24.21;43.93;100302.47;4940691;29;20464;-65
2023/07/05 08:07:44;;;;;;;15.20;13.70;;;;;;;24.64;42.91;100309.28;4932735;29;20499;-66
2023/07/05 08:10:13;;;;;;;18.00;16.20;;;;;;;24.68;42.84;100310.34;4933979;29;20411;-67
2023/07/05 08:12:42;;;;;;;16.83;15.10;;;;;;;24.94;42.67;100323.63;4943874;29;20435;-64
2023/07/05 08:15:12;;;;;;;17.87;15.93;;;;;;;25.27;41.93;100327.03;4942083;29;20407;-64
2023/07/05 08:17:41;;;;;;;23.17;16.07;;;;;;;25.38;41.59;100320.91;4938681;29;20750;-66
2023/07/05 08:20:13;;;;;;;21.03;14.97;;;;;;;25.37;41.37;100324.81;4935218;29;20407;-65
2023/07/05 08:22:42;;;;;;;17.67;15.77;;;;;;;25.03;42.65;100328.09;4933162;29;20450;-63
2023/07/05 08:25:10;;;;;;;22.63;16.20;;;;;;;24.88;42.67;100330.41;4934436;29;20849;-64
2023/07/05 08:27:39;;;;;;;24.17;16.77;;;;;;;24.48;43.43;100321.00;4933454;29;20488;-65
2023/07/05 08:30:09;;;;;;;20.47;17.60;;;;;;;24.14;43.64;100332.44;4935023;29;20443;-65
2023/07/05 08:32:40;;;;;;;19.23;15.57;;;;;;;23.95;44.21;100329.75;4933697;29;20415;-64
2023/07/05 08:35:09;;;;;;;23.67;16.97;;;;;;;23.71;45.01;100329.09;4935634;29;20869;-65
2023/07/05 08:37:38;;;;;;;21.43;16.50;;;;;;;23.60;45.37;100327.63;4933669;29;20456;-66
2023/07/05 08:40:11;;;;;;;21.40;16.67;;;;;;;23.51;45.64;100329.44;4936975;29;20919;-63
2023/07/05 08:42:48;;;;;;;20.67;16.20;;;;;;;23.45;45.93;100331.44;4941398;29;20444;-65
2023/07/05 08:45:26;;;;;;;19.13;17.23;;;;;;;23.30;46.51;100321.44;4930833;29;20577;-65
2023/07/05 08:48:01;;;;;;;17.77;15.87;;;;;;;23.24;46.98;100330.91;4932181;29;20456;-65
2023/07/05 08:50:34;;;;;;;22.50;17.07;;;;;;;23.39;46.87;100318.81;4932936;29;20928;-64
2023/07/05 08:53:25;;;;;;;21.53;17.00;;;;;;;23.66;47.07;100310.66;4931192;29;20813;-64
2023/07/05 08:55:58;;;;;;;22.17;17.00;;;;;;;24.10;45.55;100320.34;4932396;29;20806;-65
2023/07/05 08:58:35;;;;;;;18.87;16.10;;;;;;;24.21;45.29;100310.75;4929611;29;21051;-64
2023/07/05 09:01:10;;;;;;;18.57;16.57;;;;;;;24.68;45.52;100315.88;4928198;29;20484;-66
2023/07/05 09:03:40;;;;;;;19.40;16.33;;;;;;;24.42;45.25;100317.53;4935795;29;20894;-64
2023/07/05 09:10:20;;;;;;;18.73;16.07;;;;;;;24.89;44.72;100316.25;4932835;29;20475;-64
2023/07/05 09:12:57;;;;;;;23.33;15.10;;;;;;;25.21;43.77;100323.56;4930748;29;20476;-66
2023/07/05 09:15:30;;;;;;;22.47;16.03;;;;;;;25.25;43.65;100313.50;4936061;29;20804;-65
2023/07/05 09:18:05;;;;;;;14.83;12.83;;;;;;;25.05;43.75;100311.19;4934479;29;20474;-65
2023/07/05 09:20:53;;;;;;;14.57;12.30;;;;;;;25.03;43.39;100307.91;4930091;29;21020;-65
2023/07/05 09:23:30;;;;;;;16.57;13.53;;;;;;;24.95;44.37;100312.25;4926980;29;20566;-65
2023/07/05 09:26:05;;;;;;;15.80;12.37;;;;;;;24.83;43.86;100302.81;4932270;29;20562;-67
2023/07/05 09:28:40;;;;;;;14.37;12.33;;;;;;;24.92;44.47;100309.28;4932250;29;20464;-64
2023/07/05 09:31:14;;;;;;;18.00;12.90;;;;;;;24.93;44.14;100322.81;4928281;29;20483;-68
2023/07/05 09:33:58;;;;;;;14.47;12.33;;;;;;;24.73;44.17;100317.72;4932066;29;20436;-64
2023/07/05 09:36:29;;;;;;;11.77;10.53;;;;;;;24.75;44.16;100311.84;4932563;29;20429;-66
2023/07/05 09:39:07;;;;;;;14.57;12.97;;;;;;;24.42;44.63;100317.53;4931991;29;20524;-62
2023/07/05 09:42:12;;;;;;;13.30;11.27;;;;;;;24.28;45.70;100319.47;4931609;29;20531;-65
2023/07/05 09:44:42;;;;;;;13.40;11.90;;;;;;;24.39;45.35;100314.56;4931588;29;20440;-64
2023/07/05 09:47:12;;;;;;;15.53;11.83;;;;;;;24.45;44.97;100310.53;4930182;28;21008;-66
2023/07/05 09:49:41;;;;;;;14.33;12.00;;;;;;;24.48;45.18;100307.19;4926790;29;20620;-65
2023/07/05 09:52:13;;;;;;;15.70;10.40;;;;;;;24.44;45.53;100318.06;4939332;29;20429;-65
2023/07/05 09:54:44;;;;;;;12.10;10.97;;;;;;;24.59;45.36;100314.16;4933984;29;20433;-66
2023/07/05 09:57:24;;;;;;;15.43;11.37;;;;;;;24.83;44.78;100306.41;4939834;28;20422;-65
2023/07/05 09:59:53;;;;;;;14.30;11.10;;;;;;;25.05;44.73;100322.25;4936256;29;20435;-67
2023/07/05 10:02:26;;;;;;;12.43;10.10;;;;;;;25.28;44.09;100323.94;4930203;29;20480;-65
2023/07/05 10:04:58;;;;;;;25.33;19.60;;;;;;;25.30;45.15;100307.81;4934748;29;20953;-66
2023/07/05 10:07:32;;;;;;;16.60;11.93;;;;;;;25.63;44.71;100313.94;4935153;29;21076;-67
2023/07/05 10:10:05;;;;;;;10.90;9.67;;;;;;;25.70;44.06;100305.19;4934666;29;20969;-64
2023/07/05 10:12:37;;;;;;;14.47;10.73;;;;;;;25.51;44.17;100299.84;4936878;29;20937;-64
2023/07/05 10:15:20;;;;;;;16.13;10.20;;;;;;;25.68;43.95;100313.00;4937731;29;20936;-66
2023/07/05 10:17:52;;;;;;;12.70;11.60;;;;;;;25.38;44.74;100304.28;4939303;28;20448;-67
2023/07/05 10:20:24;;;;;;;12.10;10.90;;;;;;;25.53;44.78;100301.16;4935241;29;20411;-65
2023/07/05 10:23:07;;;;;;;11.63;10.43;;;;;;;25.58;44.77;100294.69;4936484;29;20559;-62
2023/07/05 10:25:40;;;;;;;13.97;10.77;;;;;;;25.93;44.15;100290.16;4935323;29;20502;-66
2023/07/05 10:28:16;;;;;;;12.33;11.03;;;;;;;25.77;43.98;100289.75;4939321;28;20460;-63
2023/07/05 10:30:53;;;;;;;12.37;9.60;;;;;;;25.51;44.85;100284.00;4934710;29;20436;-65
2023/07/05 10:33:24;;;;;;;11.63;10.23;;;;;;;25.81;44.73;100287.97;4933646;29;20436;-64
2023/07/05 10:36:03;;;;;;;10.53;9.10;;;;;;;26.36;43.81;100277.31;4936740;29;20758;-66
2023/07/05 10:38:45;;;;;;;14.20;9.63;;;;;;;26.67;43.26;100277.22;4934690;29;20456;-65
2023/07/05 10:41:25;;;;;;;12.30;10.03;;;;;;;27.01;42.86;100272.88;4936539;29;20422;-64
2023/07/05 10:44:02;;;;;;;13.17;9.10;;;;;;;27.01;42.91;100270.09;4933342;29;20515;-64
2023/07/05 10:46:31;;;;;;;10.43;9.20;;;;;;;27.10;43.36;100291.16;4932284;29;20470;-64
2023/07/05 10:49:02;;;;;;;11.10;9.13;;;;;;;26.81;44.01;100288.19;4936105;29;20925;-64
2023/07/05 10:51:36;;;;;;;10.13;9.03;;;;;;;26.62;44.52;100274.59;4934217;29;20528;-66
2023/07/05 10:54:15;;;;;;;9.33;8.37;;;;;;;26.73;43.80;100273.13;4937102;29;20440;-65
2023/07/05 10:56:47;;;;;;;10.00;8.87;;;;;;;26.73;44.89;100275.09;4935468;29;20467;-64
2023/07/05 10:59:27;;;;;;;11.27;8.33;;;;;;;26.94;44.64;100275.31;4938942;29;20422;-65
2023/07/05 11:02:12;;;;;;;7.83;7.03;;;;;;;26.90;44.35;100282.66;4935887;29;20421;-67
2023/07/05 11:04:46;;;;;;;10.67;7.43;;;;;;;26.55;44.94;100270.66;4938066;29;20402;-66
2023/07/05 11:07:17;;;;;;;9.60;7.57;;;;;;;26.25;45.50;100264.88;4931791;29;20519;-66
2023/07/05 11:09:47;;;;;;;9.10;6.87;;;;;;;25.69;46.49;100275.84;4934709;29;20439;-66
2023/07/05 11:12:21;;;;;;;11.50;6.57;;;;;;;25.22;48.06;100275.38;4935402;29;21006;-65
2023/07/05 11:14:52;;;;;;;9.53;7.20;;;;;;;24.80;49.65;100278.53;4935150;29;20451;-64
2023/07/05 11:17:31;;;;;;;9.10;7.00;;;;;;;24.87;52.07;100296.38;4931151;29;20480;-65
2023/07/05 11:20:00;;;;;;;7.70;6.53;;;;;;;24.62;52.19;100297.75;4933708;29;20413;-67
2023/07/05 11:22:41;;;;;;;11.67;5.97;;;;;;;24.87;52.15;100295.56;4931707;29;20477;-65
2023/07/05 11:25:16;;;;;;;9.10;8.40;;;;;;;25.35;52.33;100296.63;4934436;29;20443;-65
2023/07/05 11:27:54;;;;;;;12.33;5.90;;;;;;;25.94;50.06;100291.81;4951670;28;20534;-65
2023/07/05 11:30:44;;;;;;;6.80;5.17;;;;;;;25.98;49.28;100287.25;4930913;29;20819;-67
2023/07/05 11:33:20;;;;;;;6.53;4.70;;;;;;;26.42;48.70;100275.22;4939174;29;20455;-66
2023/07/05 11:35:53;;;;;;;10.40;5.77;;;;;;;26.48;48.86;100281.44;4935787;28;20992;-65
2023/07/05 11:38:59;;;;;;;7.57;4.83;;;;;;;26.66;47.90;100274.78;4932005;28;20804;-63
2023/07/05 11:41:32;;;;;;;6.30;5.53;;;;;;;26.25;48.65;100278.72;4911246;29;20921;-65
2023/07/05 11:44:03;;;;;;;15.10;5.80;;;;;;;26.24;49.12;100288.19;4904713;29;20456;-62
2023/07/05 11:46:39;;;;;;;6.10;5.50;;;;;;;26.01;49.81;100286.59;4916812;29;20526;-65
2023/07/05 11:49:32;;;;;;;8.87;5.40;;;;;;;26.24;49.51;100292.91;4933751;29;20527;-66
2023/07/05 11:52:18;;;;;;;7.00;4.83;;;;;;;26.58;48.70;100284.69;4931345;29;20798;-69
2023/07/05 11:54:55;;;;;;;15.83;5.43;;;;;;;26.58;47.84;100292.19;4932156;29;20428;-65
2023/07/05 11:57:28;;;;;;;5.60;4.60;;;;;;;26.31;48.08;100291.31;4933674;29;20555;-67